sensor_id;sensor_type;location;lat;lon;timestamp;P1;durP1;ratioP1;P2;durP2;ratioP2
46721;SDS011;32455;43.430;23.136;2023-04-25T00:00:22;1.60;;;1.50;;
46721;SDS011;32455;43.430;23.136;2023-04-25T00:03:07;2.47;;;1.20;;
46721;SDS011;32455;43.430;23.136;2023-04-25T00:05:53;1.70;;;1.30;;
46721;SDS011;32455;43.430;23.136;2023-04-25T00:08:41;2.65;;;1.30;;
46721;SDS011;32455;43.430;23.136;2023-04-25T00:11:26;4.85;;;1.40;;
46721;SDS011;32455;43.430;23.136;2023-04-25T00:14:11;1.20;;;1.10;;
46721;SDS011;32455;43.430;23.136;2023-04-25T00:16:55;2.20;;;1.30;;
46721;SDS011;32455;43.430;23.136;2023-04-25T00:19:40;2.22;;;1.50;;
46721;SDS011;32455;43.430;23.136;2023-04-25T00:22:26;1.85;;;1.35;;
46721;SDS011;32455;43.430;23.136;2023-04-25T00:25:11;3.55;;;0.80;;
46721;SDS011;32455;43.430;23.136;2023-04-25T00:27:56;1.88;;;1.20;;
46721;SDS011;32455;43.430;23.136;2023-04-25T00:30:42;2.22;;;1.08;;
46721;SDS011;32455;43.430;23.136;2023-04-25T00:33:28;1.45;;;1.00;;
46721;SDS011;32455;43.430;23.136;2023-04-25T00:36:13;1.58;;;1.15;;
46721;SDS011;32455;43.430;23.136;2023-04-25T00:38:59;1.40;;;1.10;;
46721;SDS011;32455;43.430;23.136;2023-04-25T00:41:44;1.27;;;1.00;;
46721;SDS011;32455;43.430;23.136;2023-04-25T00:44:30;1.42;;;0.93;;
46721;SDS011;32455;43.430;23.136;2023-04-25T00:47:17;1.23;;;0.77;;
46721;SDS011;32455;43.430;23.136;2023-04-25T00:50:01;1.95;;;1.00;;
46721;SDS011;32455;43.430;23.136;2023-04-25T00:52:47;1.10;;;0.98;;
46721;SDS011;32455;43.430;23.136;2023-04-25T00:55:33;1.77;;;0.80;;
46721;SDS011;32455;43.430;23.136;2023-04-25T00:58:21;3.95;;;1.00;;
46721;SDS011;32455;43.430;23.136;2023-04-25T01:01:07;3.83;;;1.48;;
46721;SDS011;32455;43.430;23.136;2023-04-25T01:03:53;11.60;;;5.57;;
46721;SDS011;32455;43.430;23.136;2023-04-25T01:06:40;6.93;;;2.58;;
46721;SDS011;32455;43.430;23.136;2023-04-25T01:09:26;7.72;;;2.17;;
46721;SDS011;32455;43.430;23.136;2023-04-25T01:12:11;3.97;;;1.20;;
46721;SDS011;32455;43.430;23.136;2023-04-25T01:14:57;3.17;;;1.40;;
46721;SDS011;32455;43.430;23.136;2023-04-25T01:17:43;2.08;;;1.02;;
46721;SDS011;32455;43.430;23.136;2023-04-25T01:20:29;0.93;;;0.80;;
46721;SDS011;32455;43.430;23.136;2023-04-25T01:23:18;3.83;;;0.95;;
46721;SDS011;32455;43.430;23.136;2023-04-25T01:26:04;2.90;;;0.90;;
46721;SDS011;32455;43.430;23.136;2023-04-25T01:28:51;6.85;;;1.58;;
46721;SDS011;32455;43.430;23.136;2023-04-25T01:31:37;3.88;;;2.10;;
46721;SDS011;32455;43.430;23.136;2023-04-25T01:34:23;4.03;;;2.22;;
46721;SDS011;32455;43.430;23.136;2023-04-25T01:37:09;5.90;;;2.72;;
46721;SDS011;32455;43.430;23.136;2023-04-25T01:39:54;6.35;;;1.70;;
46721;SDS011;32455;43.430;23.136;2023-04-25T01:42:42;5.18;;;2.30;;
46721;SDS011;32455;43.430;23.136;2023-04-25T01:45:28;4.80;;;2.53;;
46721;SDS011;32455;43.430;23.136;2023-04-25T01:48:14;5.60;;;2.45;;
46721;SDS011;32455;43.430;23.136;2023-04-25T01:50:59;4.70;;;3.05;;
46721;SDS011;32455;43.430;23.136;2023-04-25T01:53:45;7.05;;;3.97;;
46721;SDS011;32455;43.430;23.136;2023-04-25T01:56:31;4.70;;;3.95;;
46721;SDS011;32455;43.430;23.136;2023-04-25T01:59:18;4.70;;;2.95;;
46721;SDS011;32455;43.430;23.136;2023-04-25T02:02:04;8.63;;;3.08;;
46721;SDS011;32455;43.430;23.136;2023-04-25T02:04:49;8.05;;;4.22;;
46721;SDS011;32455;43.430;23.136;2023-04-25T02:07:33;5.63;;;4.35;;
46721;SDS011;32455;43.430;23.136;2023-04-25T02:10:19;6.45;;;4.78;;
46721;SDS011;32455;43.430;23.136;2023-04-25T02:13:04;6.28;;;4.35;;
46721;SDS011;32455;43.430;23.136;2023-04-25T02:15:50;5.75;;;3.50;;
46721;SDS011;32455;43.430;23.136;2023-04-25T02:18:36;5.57;;;3.70;;
46721;SDS011;32455;43.430;23.136;2023-04-25T02:21:22;5.32;;;3.58;;
46721;SDS011;32455;43.430;23.136;2023-04-25T02:24:07;4.38;;;2.70;;
46721;SDS011;32455;43.430;23.136;2023-04-25T02:26:53;2.88;;;2.53;;
46721;SDS011;32455;43.430;23.136;2023-04-25T02:29:40;4.05;;;2.80;;
46721;SDS011;32455;43.430;23.136;2023-04-25T02:32:25;3.13;;;2.15;;
46721;SDS011;32455;43.430;23.136;2023-04-25T02:35:11;4.38;;;1.70;;
46721;SDS011;32455;43.430;23.136;2023-04-25T02:37:56;7.18;;;1.90;;
46721;SDS011;32455;43.430;23.136;2023-04-25T02:40:41;3.10;;;1.67;;
46721;SDS011;32455;43.430;23.136;2023-04-25T02:43:27;4.05;;;1.98;;
46721;SDS011;32455;43.430;23.136;2023-04-25T02:46:12;2.38;;;2.00;;
46721;SDS011;32455;43.430;23.136;2023-04-25T02:48:58;3.03;;;1.88;;
46721;SDS011;32455;43.430;23.136;2023-04-25T02:51:43;2.42;;;1.90;;
46721;SDS011;32455;43.430;23.136;2023-04-25T02:54:29;2.10;;;1.90;;
46721;SDS011;32455;43.430;23.136;2023-04-25T02:57:15;2.83;;;1.85;;
46721;SDS011;32455;43.430;23.136;2023-04-25T03:00:00;2.83;;;1.70;;
46721;SDS011;32455;43.430;23.136;2023-04-25T03:02:45;4.47;;;2.50;;
46721;SDS011;32455;43.430;23.136;2023-04-25T03:05:30;2.83;;;2.50;;
46721;SDS011;32455;43.430;23.136;2023-04-25T03:08:16;12.75;;;6.40;;
46721;SDS011;32455;43.430;23.136;2023-04-25T03:11:02;5.55;;;3.40;;
46721;SDS011;32455;43.430;23.136;2023-04-25T03:13:47;7.22;;;3.85;;
46721;SDS011;32455;43.430;23.136;2023-04-25T03:16:33;6.90;;;4.00;;
46721;SDS011;32455;43.430;23.136;2023-04-25T03:19:18;8.70;;;4.13;;
46721;SDS011;32455;43.430;23.136;2023-04-25T03:22:05;6.45;;;3.83;;
46721;SDS011;32455;43.430;23.136;2023-04-25T03:24:50;4.28;;;2.25;;
46721;SDS011;32455;43.430;23.136;2023-04-25T03:27:35;7.55;;;5.28;;
46721;SDS011;32455;43.430;23.136;2023-04-25T03:30:21;10.52;;;7.28;;
46721;SDS011;32455;43.430;23.136;2023-04-25T03:33:06;12.20;;;9.13;;
46721;SDS011;32455;43.430;23.136;2023-04-25T03:35:52;11.27;;;10.07;;
46721;SDS011;32455;43.430;23.136;2023-04-25T03:38:37;13.23;;;10.30;;
46721;SDS011;32455;43.430;23.136;2023-04-25T03:41:23;11.30;;;10.10;;
46721;SDS011;32455;43.430;23.136;2023-04-25T03:44:08;9.52;;;8.50;;
46721;SDS011;32455;43.430;23.136;2023-04-25T03:46:53;10.80;;;9.05;;
46721;SDS011;32455;43.430;23.136;2023-04-25T03:49:37;11.05;;;8.77;;
46721;SDS011;32455;43.430;23.136;2023-04-25T03:52:22;10.93;;;9.25;;
46721;SDS011;32455;43.430;23.136;2023-04-25T03:55:08;13.30;;;8.88;;
46721;SDS011;32455;43.430;23.136;2023-04-25T03:57:54;10.10;;;8.95;;
46721;SDS011;32455;43.430;23.136;2023-04-25T04:00:39;11.32;;;8.63;;
46721;SDS011;32455;43.430;23.136;2023-04-25T04:03:25;8.90;;;8.00;;
46721;SDS011;32455;43.430;23.136;2023-04-25T04:06:10;10.38;;;8.82;;
46721;SDS011;32455;43.430;23.136;2023-04-25T04:08:55;9.63;;;8.38;;
46721;SDS011;32455;43.430;23.136;2023-04-25T04:11:41;10.80;;;8.50;;
46721;SDS011;32455;43.430;23.136;2023-04-25T04:14:28;11.57;;;8.40;;
46721;SDS011;32455;43.430;23.136;2023-04-25T04:17:13;8.60;;;7.78;;
46721;SDS011;32455;43.430;23.136;2023-04-25T04:19:58;9.23;;;7.90;;
46721;SDS011;32455;43.430;23.136;2023-04-25T04:22:43;11.98;;;8.68;;
46721;SDS011;32455;43.430;23.136;2023-04-25T04:25:29;9.30;;;8.35;;
46721;SDS011;32455;43.430;23.136;2023-04-25T04:28:14;10.15;;;8.48;;
46721;SDS011;32455;43.430;23.136;2023-04-25T04:31:00;14.48;;;8.80;;
46721;SDS011;32455;43.430;23.136;2023-04-25T04:33:47;12.82;;;8.32;;
46721;SDS011;32455;43.430;23.136;2023-04-25T04:36:33;9.32;;;7.68;;
46721;SDS011;32455;43.430;23.136;2023-04-25T04:39:18;8.32;;;6.88;;
46721;SDS011;32455;43.430;23.136;2023-04-25T04:42:03;9.02;;;7.07;;
46721;SDS011;32455;43.430;23.136;2023-04-25T04:44:49;8.65;;;6.75;;
46721;SDS011;32455;43.430;23.136;2023-04-25T04:47:34;7.90;;;6.25;;
46721;SDS011;32455;43.430;23.136;2023-04-25T04:50:21;9.48;;;7.15;;
46721;SDS011;32455;43.430;23.136;2023-04-25T04:53:07;6.78;;;6.15;;
46721;SDS011;32455;43.430;23.136;2023-04-25T04:55:53;6.78;;;5.97;;
46721;SDS011;32455;43.430;23.136;2023-04-25T04:58:38;8.05;;;7.10;;
46721;SDS011;32455;43.430;23.136;2023-04-25T05:01:24;9.40;;;8.48;;
46721;SDS011;32455;43.430;23.136;2023-04-25T05:04:10;12.20;;;8.65;;
46721;SDS011;32455;43.430;23.136;2023-04-25T05:06:55;9.02;;;8.05;;
46721;SDS011;32455;43.430;23.136;2023-04-25T05:09:41;8.15;;;7.30;;
46721;SDS011;32455;43.430;23.136;2023-04-25T05:12:26;9.10;;;8.13;;
46721;SDS011;32455;43.430;23.136;2023-04-25T05:15:11;10.55;;;8.57;;
46721;SDS011;32455;43.430;23.136;2023-04-25T05:17:56;9.50;;;8.00;;
46721;SDS011;32455;43.430;23.136;2023-04-25T05:20:42;10.50;;;8.45;;
46721;SDS011;32455;43.430;23.136;2023-04-25T05:23:27;10.77;;;8.15;;
46721;SDS011;32455;43.430;23.136;2023-04-25T05:26:14;6.85;;;5.75;;
46721;SDS011;32455;43.430;23.136;2023-04-25T05:29:00;6.05;;;5.47;;
46721;SDS011;32455;43.430;23.136;2023-04-25T05:31:45;5.10;;;4.55;;
46721;SDS011;32455;43.430;23.136;2023-04-25T05:34:32;5.80;;;4.32;;
46721;SDS011;32455;43.430;23.136;2023-04-25T05:37:17;8.75;;;5.70;;
46721;SDS011;32455;43.430;23.136;2023-04-25T05:40:02;7.90;;;7.18;;
46721;SDS011;32455;43.430;23.136;2023-04-25T05:42:51;7.32;;;6.63;;
46721;SDS011;32455;43.430;23.136;2023-04-25T05:45:37;9.52;;;7.80;;
46721;SDS011;32455;43.430;23.136;2023-04-25T05:48:22;7.25;;;6.63;;
46721;SDS011;32455;43.430;23.136;2023-04-25T05:51:08;7.43;;;6.63;;
46721;SDS011;32455;43.430;23.136;2023-04-25T05:53:53;6.85;;;6.25;;
46721;SDS011;32455;43.430;23.136;2023-04-25T05:56:39;6.32;;;5.72;;
46721;SDS011;32455;43.430;23.136;2023-04-25T05:59:24;6.75;;;6.15;;
46721;SDS011;32455;43.430;23.136;2023-04-25T06:02:10;6.38;;;5.70;;
46721;SDS011;32455;43.430;23.136;2023-04-25T06:04:55;6.93;;;4.80;;
46721;SDS011;32455;43.430;23.136;2023-04-25T06:07:40;3.92;;;3.63;;
46721;SDS011;32455;43.430;23.136;2023-04-25T06:10:25;3.50;;;3.08;;
46721;SDS011;32455;43.430;23.136;2023-04-25T06:13:11;3.13;;;2.80;;
46721;SDS011;32455;43.430;23.136;2023-04-25T06:15:56;3.70;;;3.38;;
46721;SDS011;32455;43.430;23.136;2023-04-25T06:18:41;3.50;;;3.20;;
46721;SDS011;32455;43.430;23.136;2023-04-25T06:21:27;3.95;;;3.08;;
46721;SDS011;32455;43.430;23.136;2023-04-25T06:24:12;4.30;;;3.50;;
46721;SDS011;32455;43.430;23.136;2023-04-25T06:26:57;5.78;;;2.75;;
46721;SDS011;32455;43.430;23.136;2023-04-25T06:29:42;3.88;;;2.70;;
46721;SDS011;32455;43.430;23.136;2023-04-25T06:32:28;2.63;;;2.42;;
46721;SDS011;32455;43.430;23.136;2023-04-25T06:35:14;3.17;;;2.88;;
46721;SDS011;32455;43.430;23.136;2023-04-25T06:38:00;4.15;;;2.72;;
46721;SDS011;32455;43.430;23.136;2023-04-25T06:40:45;2.70;;;2.50;;
46721;SDS011;32455;43.430;23.136;2023-04-25T06:43:31;2.05;;;1.85;;
46721;SDS011;32455;43.430;23.136;2023-04-25T06:46:15;2.65;;;1.80;;
46721;SDS011;32455;43.430;23.136;2023-04-25T06:49:01;2.33;;;1.83;;
46721;SDS011;32455;43.430;23.136;2023-04-25T06:51:46;4.50;;;2.25;;
46721;SDS011;32455;43.430;23.136;2023-04-25T06:54:31;5.80;;;2.05;;
46721;SDS011;32455;43.430;23.136;2023-04-25T06:57:17;3.00;;;1.40;;
46721;SDS011;32455;43.430;23.136;2023-04-25T07:00:02;1.40;;;1.10;;
46721;SDS011;32455;43.430;23.136;2023-04-25T07:02:49;1.80;;;1.00;;
46721;SDS011;32455;43.430;23.136;2023-04-25T07:05:35;1.95;;;1.25;;
46721;SDS011;32455;43.430;23.136;2023-04-25T07:08:20;2.10;;;1.30;;
46721;SDS011;32455;43.430;23.136;2023-04-25T07:11:06;1.90;;;1.08;;
46721;SDS011;32455;43.430;23.136;2023-04-25T07:13:51;2.47;;;1.02;;
46721;SDS011;32455;43.430;23.136;2023-04-25T07:16:37;1.63;;;0.82;;
46721;SDS011;32455;43.430;23.136;2023-04-25T07:19:22;1.73;;;1.10;;
46721;SDS011;32455;43.430;23.136;2023-04-25T07:22:10;2.53;;;0.93;;
46721;SDS011;32455;43.430;23.136;2023-04-25T07:24:55;2.72;;;0.80;;
46721;SDS011;32455;43.430;23.136;2023-04-25T07:27:40;2.35;;;0.95;;
46721;SDS011;32455;43.430;23.136;2023-04-25T07:30:26;1.00;;;0.85;;
46721;SDS011;32455;43.430;23.136;2023-04-25T07:33:11;0.75;;;0.63;;
46721;SDS011;32455;43.430;23.136;2023-04-25T07:35:56;1.80;;;0.75;;
46721;SDS011;32455;43.430;23.136;2023-04-25T07:38:41;2.95;;;0.77;;
46721;SDS011;32455;43.430;23.136;2023-04-25T07:41:27;2.47;;;1.00;;
46721;SDS011;32455;43.430;23.136;2023-04-25T07:44:12;2.28;;;0.68;;
46721;SDS011;32455;43.430;23.136;2023-04-25T07:46:57;3.78;;;1.23;;
46721;SDS011;32455;43.430;23.136;2023-04-25T07:49:43;4.18;;;0.75;;
46721;SDS011;32455;43.430;23.136;2023-04-25T07:52:28;1.38;;;0.98;;
46721;SDS011;32455;43.430;23.136;2023-04-25T07:55:13;4.68;;;1.40;;
46721;SDS011;32455;43.430;23.136;2023-04-25T07:57:58;1.25;;;0.80;;
46721;SDS011;32455;43.430;23.136;2023-04-25T08:00:43;2.20;;;0.73;;
46721;SDS011;32455;43.430;23.136;2023-04-25T08:03:29;0.85;;;0.73;;
46721;SDS011;32455;43.430;23.136;2023-04-25T08:06:14;2.08;;;0.80;;
46721;SDS011;32455;43.430;23.136;2023-04-25T08:09:00;1.42;;;0.80;;
46721;SDS011;32455;43.430;23.136;2023-04-25T08:11:45;1.13;;;0.98;;
46721;SDS011;32455;43.430;23.136;2023-04-25T08:14:31;1.10;;;0.90;;
46721;SDS011;32455;43.430;23.136;2023-04-25T08:17:20;0.70;;;0.70;;
46721;SDS011;32455;43.430;23.136;2023-04-25T08:20:06;2.75;;;0.80;;
46721;SDS011;32455;43.430;23.136;2023-04-25T08:22:52;2.97;;;1.95;;
46721;SDS011;32455;43.430;23.136;2023-04-25T08:25:37;2.25;;;0.93;;
46721;SDS011;32455;43.430;23.136;2023-04-25T08:28:23;1.95;;;0.80;;
46721;SDS011;32455;43.430;23.136;2023-04-25T08:31:08;1.63;;;0.90;;
46721;SDS011;32455;43.430;23.136;2023-04-25T08:33:54;2.63;;;0.85;;
46721;SDS011;32455;43.430;23.136;2023-04-25T08:36:39;3.38;;;1.80;;
46721;SDS011;32455;43.430;23.136;2023-04-25T08:39:24;5.30;;;3.03;;
46721;SDS011;32455;43.430;23.136;2023-04-25T08:42:08;3.72;;;2.13;;
46721;SDS011;32455;43.430;23.136;2023-04-25T08:44:56;2.25;;;1.35;;
46721;SDS011;32455;43.430;23.136;2023-04-25T08:47:45;1.50;;;0.85;;
46721;SDS011;32455;43.430;23.136;2023-04-25T08:50:33;1.63;;;0.50;;
46721;SDS011;32455;43.430;23.136;2023-04-25T08:53:22;1.60;;;0.80;;
46721;SDS011;32455;43.430;23.136;2023-04-25T08:56:10;2.45;;;0.70;;
46721;SDS011;32455;43.430;23.136;2023-04-25T08:59:02;0.60;;;0.60;;
46721;SDS011;32455;43.430;23.136;2023-04-25T09:01:48;1.70;;;0.70;;
46721;SDS011;32455;43.430;23.136;2023-04-25T09:04:34;1.77;;;1.10;;
46721;SDS011;32455;43.430;23.136;2023-04-25T09:07:20;1.38;;;1.00;;
46721;SDS011;32455;43.430;23.136;2023-04-25T09:10:06;3.78;;;1.02;;
46721;SDS011;32455;43.430;23.136;2023-04-25T09:13:08;3.70;;;1.20;;
46721;SDS011;32455;43.430;23.136;2023-04-25T09:15:56;2.75;;;0.90;;
46721;SDS011;32455;43.430;23.136;2023-04-25T09:18:42;1.80;;;1.10;;
46721;SDS011;32455;43.430;23.136;2023-04-25T09:21:28;1.33;;;0.80;;
46721;SDS011;32455;43.430;23.136;2023-04-25T09:24:15;1.05;;;0.63;;
46721;SDS011;32455;43.430;23.136;2023-04-25T09:27:10;1.70;;;0.82;;
46721;SDS011;32455;43.430;23.136;2023-04-25T09:29:57;1.15;;;0.70;;
46721;SDS011;32455;43.430;23.136;2023-04-25T09:32:45;1.30;;;0.80;;
46721;SDS011;32455;43.430;23.136;2023-04-25T09:35:32;1.73;;;0.80;;
46721;SDS011;32455;43.430;23.136;2023-04-25T09:38:22;4.57;;;1.23;;
46721;SDS011;32455;43.430;23.136;2023-04-25T09:41:08;0.93;;;0.73;;
46721;SDS011;32455;43.430;23.136;2023-04-25T09:43:56;1.85;;;0.98;;
46721;SDS011;32455;43.430;23.136;2023-04-25T09:46:43;2.55;;;0.60;;
46721;SDS011;32455;43.430;23.136;2023-04-25T09:49:28;1.50;;;0.70;;
46721;SDS011;32455;43.430;23.136;2023-04-25T09:52:15;0.60;;;0.50;;
46721;SDS011;32455;43.430;23.136;2023-04-25T09:55:01;1.60;;;0.80;;
46721;SDS011;32455;43.430;23.136;2023-04-25T09:57:47;0.82;;;0.70;;
46721;SDS011;32455;43.430;23.136;2023-04-25T10:00:35;2.67;;;0.70;;
46721;SDS011;32455;43.430;23.136;2023-04-25T10:03:20;1.20;;;0.93;;
46721;SDS011;32455;43.430;23.136;2023-04-25T10:06:19;1.73;;;1.35;;
46721;SDS011;32455;43.430;23.136;2023-04-25T10:09:05;1.10;;;0.68;;
46721;SDS011;32455;43.430;23.136;2023-04-25T10:11:53;2.05;;;0.75;;
46721;SDS011;32455;43.430;23.136;2023-04-25T10:14:39;2.70;;;0.80;;
46721;SDS011;32455;43.430;23.136;2023-04-25T10:17:25;2.97;;;1.10;;
46721;SDS011;32455;43.430;23.136;2023-04-25T10:20:14;4.03;;;1.15;;
46721;SDS011;32455;43.430;23.136;2023-04-25T10:23:03;8.07;;;1.63;;
46721;SDS011;32455;43.430;23.136;2023-04-25T10:25:56;7.88;;;1.20;;
46721;SDS011;32455;43.430;23.136;2023-04-25T10:28:56;2.10;;;0.90;;
46721;SDS011;32455;43.430;23.136;2023-04-25T10:31:48;3.05;;;1.00;;
46721;SDS011;32455;43.430;23.136;2023-04-25T10:34:41;2.90;;;1.02;;
46721;SDS011;32455;43.430;23.136;2023-04-25T10:37:27;2.78;;;1.10;;
46721;SDS011;32455;43.430;23.136;2023-04-25T10:40:14;4.03;;;1.35;;
46721;SDS011;32455;43.430;23.136;2023-04-25T10:49:28;2.17;;;1.52;;
46721;SDS011;32455;43.430;23.136;2023-04-25T10:52:25;6.68;;;1.50;;
46721;SDS011;32455;43.430;23.136;2023-04-25T10:55:11;2.83;;;1.85;;
46721;SDS011;32455;43.430;23.136;2023-04-25T10:57:57;1.58;;;1.20;;
46721;SDS011;32455;43.430;23.136;2023-04-25T11:00:42;2.08;;;1.15;;
46721;SDS011;32455;43.430;23.136;2023-04-25T11:03:28;3.83;;;1.13;;
46721;SDS011;32455;43.430;23.136;2023-04-25T11:09:10;1.65;;;0.90;;
46721;SDS011;32455;43.430;23.136;2023-04-25T11:12:00;3.42;;;1.15;;
46721;SDS011;32455;43.430;23.136;2023-04-25T11:14:45;4.82;;;1.42;;
46721;SDS011;32455;43.430;23.136;2023-04-25T11:17:31;2.95;;;1.70;;
46721;SDS011;32455;43.430;23.136;2023-04-25T11:20:16;2.40;;;1.20;;
46721;SDS011;32455;43.430;23.136;2023-04-25T11:23:02;2.33;;;1.13;;
46721;SDS011;32455;43.430;23.136;2023-04-25T11:25:48;2.15;;;1.48;;
46721;SDS011;32455;43.430;23.136;2023-04-25T11:28:34;3.45;;;1.95;;
46721;SDS011;32455;43.430;23.136;2023-04-25T11:31:20;2.22;;;1.85;;
46721;SDS011;32455;43.430;23.136;2023-04-25T11:34:05;0.90;;;0.90;;
46721;SDS011;32455;43.430;23.136;2023-04-25T11:36:52;3.90;;;0.80;;
46721;SDS011;32455;43.430;23.136;2023-04-25T11:39:38;1.17;;;0.90;;
46721;SDS011;32455;43.430;23.136;2023-04-25T11:42:23;2.70;;;1.10;;
46721;SDS011;32455;43.430;23.136;2023-04-25T11:45:09;3.17;;;0.88;;
46721;SDS011;32455;43.430;23.136;2023-04-25T11:47:55;0.98;;;0.90;;
46721;SDS011;32455;43.430;23.136;2023-04-25T11:50:41;0.82;;;0.82;;
46721;SDS011;32455;43.430;23.136;2023-04-25T11:53:26;1.50;;;0.73;;
46721;SDS011;32455;43.430;23.136;2023-04-25T11:56:13;3.95;;;1.10;;
46721;SDS011;32455;43.430;23.136;2023-04-25T11:58:59;0.88;;;0.88;;
46721;SDS011;32455;43.430;23.136;2023-04-25T12:01:48;1.15;;;0.82;;
46721;SDS011;32455;43.430;23.136;2023-04-25T12:04:35;1.33;;;0.90;;
46721;SDS011;32455;43.430;23.136;2023-04-25T12:07:20;0.90;;;0.90;;
46721;SDS011;32455;43.430;23.136;2023-04-25T12:10:07;4.22;;;1.08;;
46721;SDS011;32455;43.430;23.136;2023-04-25T12:12:55;5.70;;;1.40;;
46721;SDS011;32455;43.430;23.136;2023-04-25T12:15:40;1.33;;;1.23;;
46721;SDS011;32455;43.430;23.136;2023-04-25T12:18:26;3.15;;;1.40;;
46721;SDS011;32455;43.430;23.136;2023-04-25T12:21:13;3.00;;;1.20;;
46721;SDS011;32455;43.430;23.136;2023-04-25T12:24:11;2.17;;;1.00;;
46721;SDS011;32455;43.430;23.136;2023-04-25T12:27:03;0.88;;;0.88;;
46721;SDS011;32455;43.430;23.136;2023-04-25T12:29:56;1.05;;;0.80;;
46721;SDS011;32455;43.430;23.136;2023-04-25T12:32:42;0.70;;;0.70;;
46721;SDS011;32455;43.430;23.136;2023-04-25T12:35:27;2.13;;;0.75;;
46721;SDS011;32455;43.430;23.136;2023-04-25T12:38:20;1.48;;;0.80;;
46721;SDS011;32455;43.430;23.136;2023-04-25T12:41:10;1.92;;;0.90;;
46721;SDS011;32455;43.430;23.136;2023-04-25T12:43:56;0.90;;;0.80;;
46721;SDS011;32455;43.430;23.136;2023-04-25T12:46:41;0.90;;;0.90;;
46721;SDS011;32455;43.430;23.136;2023-04-25T12:49:26;0.60;;;0.60;;
46721;SDS011;32455;43.430;23.136;2023-04-25T12:52:12;1.10;;;1.00;;
46721;SDS011;32455;43.430;23.136;2023-04-25T12:54:57;0.70;;;0.70;;
46721;SDS011;32455;43.430;23.136;2023-04-25T12:57:41;1.13;;;0.80;;
46721;SDS011;32455;43.430;23.136;2023-04-25T13:00:26;0.68;;;0.68;;
46721;SDS011;32455;43.430;23.136;2023-04-25T13:03:11;0.95;;;0.80;;
46721;SDS011;32455;43.430;23.136;2023-04-25T13:05:57;2.00;;;1.90;;
46721;SDS011;32455;43.430;23.136;2023-04-25T13:08:42;3.97;;;2.97;;
46721;SDS011;32455;43.430;23.136;2023-04-25T13:11:28;3.95;;;3.65;;
46721;SDS011;32455;43.430;23.136;2023-04-25T13:14:13;5.13;;;3.83;;
46721;SDS011;32455;43.430;23.136;2023-04-25T13:16:58;4.45;;;4.10;;
46721;SDS011;32455;43.430;23.136;2023-04-25T13:19:43;5.82;;;5.32;;
46721;SDS011;32455;43.430;23.136;2023-04-25T13:22:28;5.43;;;3.83;;
46721;SDS011;32455;43.430;23.136;2023-04-25T13:25:14;3.67;;;3.38;;
46721;SDS011;32455;43.430;23.136;2023-04-25T13:28:00;3.45;;;3.15;;
46721;SDS011;32455;43.430;23.136;2023-04-25T13:30:46;4.18;;;3.78;;
46721;SDS011;32455;43.430;23.136;2023-04-25T13:33:32;5.35;;;3.42;;
46721;SDS011;32455;43.430;23.136;2023-04-25T13:36:18;3.35;;;2.95;;
46721;SDS011;32455;43.430;23.136;2023-04-25T13:39:04;2.83;;;2.63;;
46721;SDS011;32455;43.430;23.136;2023-04-25T13:41:50;3.47;;;3.17;;
46721;SDS011;32455;43.430;23.136;2023-04-25T13:44:35;4.95;;;3.30;;
46721;SDS011;32455;43.430;23.136;2023-04-25T13:47:22;4.43;;;4.03;;
46721;SDS011;32455;43.430;23.136;2023-04-25T13:50:08;4.65;;;4.03;;
46721;SDS011;32455;43.430;23.136;2023-04-25T13:52:54;4.00;;;3.70;;
46721;SDS011;32455;43.430;23.136;2023-04-25T13:55:40;5.22;;;4.20;;
46721;SDS011;32455;43.430;23.136;2023-04-25T13:58:25;5.97;;;5.10;;
46721;SDS011;32455;43.430;23.136;2023-04-25T14:01:10;5.85;;;5.35;;
46721;SDS011;32455;43.430;23.136;2023-04-25T14:03:55;5.05;;;4.57;;
46721;SDS011;32455;43.430;23.136;2023-04-25T14:06:41;5.28;;;4.10;;
46721;SDS011;32455;43.430;23.136;2023-04-25T14:09:27;4.68;;;4.28;;
46721;SDS011;32455;43.430;23.136;2023-04-25T14:12:13;5.55;;;4.95;;
46721;SDS011;32455;43.430;23.136;2023-04-25T14:14:57;5.78;;;5.20;;
46721;SDS011;32455;43.430;23.136;2023-04-25T14:17:42;6.57;;;5.40;;
46721;SDS011;32455;43.430;23.136;2023-04-25T14:20:28;10.15;;;5.60;;
46721;SDS011;32455;43.430;23.136;2023-04-25T14:23:13;5.10;;;4.70;;
46721;SDS011;32455;43.430;23.136;2023-04-25T14:25:59;6.25;;;5.75;;
46721;SDS011;32455;43.430;23.136;2023-04-25T14:28:44;5.85;;;5.15;;
46721;SDS011;32455;43.430;23.136;2023-04-25T14:31:29;4.90;;;4.50;;
46721;SDS011;32455;43.430;23.136;2023-04-25T14:34:13;5.65;;;4.30;;
46721;SDS011;32455;43.430;23.136;2023-04-25T14:36:59;5.15;;;4.75;;
46721;SDS011;32455;43.430;23.136;2023-04-25T14:39:45;4.72;;;4.43;;
46721;SDS011;32455;43.430;23.136;2023-04-25T14:42:30;6.85;;;5.47;;
46721;SDS011;32455;43.430;23.136;2023-04-25T14:45:16;4.68;;;4.20;;
46721;SDS011;32455;43.430;23.136;2023-04-25T14:48:02;5.00;;;4.60;;
46721;SDS011;32455;43.430;23.136;2023-04-25T14:50:47;6.25;;;4.85;;
46721;SDS011;32455;43.430;23.136;2023-04-25T14:53:33;4.82;;;4.43;;
46721;SDS011;32455;43.430;23.136;2023-04-25T14:56:18;4.85;;;4.45;;
46721;SDS011;32455;43.430;23.136;2023-04-25T14:59:04;5.03;;;4.60;;
46721;SDS011;32455;43.430;23.136;2023-04-25T15:01:50;4.97;;;4.47;;
46721;SDS011;32455;43.430;23.136;2023-04-25T15:04:35;6.63;;;5.72;;
46721;SDS011;32455;43.430;23.136;2023-04-25T15:07:20;8.13;;;5.80;;
46721;SDS011;32455;43.430;23.136;2023-04-25T15:10:06;9.07;;;7.53;;
46721;SDS011;32455;43.430;23.136;2023-04-25T15:12:57;6.68;;;6.00;;
46721;SDS011;32455;43.430;23.136;2023-04-25T15:15:43;6.45;;;5.88;;
46721;SDS011;32455;43.430;23.136;2023-04-25T15:18:28;7.65;;;6.22;;
46721;SDS011;32455;43.430;23.136;2023-04-25T15:21:13;9.05;;;7.22;;
46721;SDS011;32455;43.430;23.136;2023-04-25T15:23:59;8.20;;;7.40;;
46721;SDS011;32455;43.430;23.136;2023-04-25T15:26:45;8.13;;;7.03;;
46721;SDS011;32455;43.430;23.136;2023-04-25T15:29:31;7.30;;;6.55;;
46721;SDS011;32455;43.430;23.136;2023-04-25T15:32:16;8.43;;;7.07;;
46721;SDS011;32455;43.430;23.136;2023-04-25T15:35:02;11.75;;;7.40;;
46721;SDS011;32455;43.430;23.136;2023-04-25T15:37:50;9.00;;;7.35;;
46721;SDS011;32455;43.430;23.136;2023-04-25T15:40:35;10.90;;;8.43;;
46721;SDS011;32455;43.430;23.136;2023-04-25T15:43:21;10.48;;;8.73;;
46721;SDS011;32455;43.430;23.136;2023-04-25T15:46:06;11.45;;;9.05;;
46721;SDS011;32455;43.430;23.136;2023-04-25T15:48:51;10.20;;;8.80;;
46721;SDS011;32455;43.430;23.136;2023-04-25T15:51:36;10.40;;;8.57;;
46721;SDS011;32455;43.430;23.136;2023-04-25T15:54:22;8.25;;;7.43;;
46721;SDS011;32455;43.430;23.136;2023-04-25T15:57:07;9.38;;;8.18;;
46721;SDS011;32455;43.430;23.136;2023-04-25T15:59:56;9.18;;;8.10;;
46721;SDS011;32455;43.430;23.136;2023-04-25T16:02:42;9.13;;;7.55;;
46721;SDS011;32455;43.430;23.136;2023-04-25T16:05:28;8.30;;;7.50;;
46721;SDS011;32455;43.430;23.136;2023-04-25T16:08:14;8.90;;;8.00;;
46721;SDS011;32455;43.430;23.136;2023-04-25T16:11:00;10.25;;;9.18;;
46721;SDS011;32455;43.430;23.136;2023-04-25T16:13:46;10.88;;;9.15;;
46721;SDS011;32455;43.430;23.136;2023-04-25T16:16:30;11.77;;;9.20;;
46721;SDS011;32455;43.430;23.136;2023-04-25T16:19:15;11.23;;;8.88;;
46721;SDS011;32455;43.430;23.136;2023-04-25T16:22:01;5.47;;;4.97;;
46721;SDS011;32455;43.430;23.136;2023-04-25T16:24:46;4.43;;;4.03;;
46721;SDS011;32455;43.430;23.136;2023-04-25T16:27:31;3.53;;;3.20;;
46721;SDS011;32455;43.430;23.136;2023-04-25T16:30:18;4.45;;;3.55;;
46721;SDS011;32455;43.430;23.136;2023-04-25T16:33:04;3.40;;;3.10;;